Atlas — WDC2601 — position and weather

sailwx.info

Track history (hours):
 
Tides and Currents Weather Stations Pressure Air Temp Water Temp Dewpoint Dewpoint Depression Visibility Wind Speed Wind Dir Waves Ship Positions

Atlas

Owner: Kirby Inland Marine LP, Houston, TX. More information available from US FCC via Universal Licensing System and Coast Guard Vessel Documentation Center.

Last reported at 2018-May-19 06:19 UTC. Time now 2018-May-20 21:54 UTC.
Position N 29°43' W 095°13'.

Length 22 m; draft 2.7 m.

Type: . MMSI: 366995460.

Date/timePositionNaut miles runAvg speedWind from/ knotsBaromVisibWave heightAir tempDewpointWater temp
2018-May-19 06:19N 29°43' W 095°13'4 2.8
2018-May-19 04:57N 29°44' W 095°09'3 2.4
2018-May-19 03:43N 29°45' W 095°06'0 0.1
2018-May-19 03:24N 29°45' W 095°06'0 0.0
2018-May-19 03:00N 29°45' W 095°06'0 0.0
2018-May-19 02:30N 29°45' W 095°06'0 0.0
2018-May-19 01:59N 29°45' W 095°06'0 0.0
2018-May-19 01:28N 29°45' W 095°06'0 0.0
2018-May-19 00:53N 29°45' W 095°06'1 0.1
2018-May-18 14:38N 29°45' W 095°06'1 6.5
2018-May-18 14:25N 29°46' W 095°05'0 0.4
2018-May-18 13:55N 29°46' W 095°06'0 0.0
2018-May-18 12:14N 29°46' W 095°06'0 0.9
2018-May-18 12:00N 29°46' W 095°05'0 0.6
2018-May-18 11:30N 29°45' W 095°06'0 0.0
2018-May-18 10:58N 29°45' W 095°06'0 0.0
2018-May-18 10:30N 29°45' W 095°06'0 0.0
2018-May-18 10:00N 29°45' W 095°06'0 0.0
2018-May-18 09:30N 29°45' W 095°06'0 0.0
2018-May-18 09:00N 29°45' W 095°06'0 0.0
2018-May-18 08:30N 29°45' W 095°06'0 0.0
2018-May-18 08:00N 29°45' W 095°06'0 0.0
2018-May-18 07:30N 29°45' W 095°06'0 0.0
2018-May-18 07:00N 29°45' W 095°06'0 0.0
2018-May-18 06:30N 29°45' W 095°06'0 0.0
2018-May-18 06:00N 29°45' W 095°06'0 0.0
2018-May-18 05:30N 29°45' W 095°06'0 0.0
2018-May-18 05:01N 29°45' W 095°06'0 0.0
2018-May-18 04:30N 29°45' W 095°06'0 0.0
2018-May-18 04:00N 29°45' W 095°06'0 0.0
2018-May-18 03:30N 29°45' W 095°06'0 0.0
2018-May-18 03:00N 29°45' W 095°06'0 0.0
2018-May-18 02:30N 29°45' W 095°06'0 0.0
2018-May-18 01:53N 29°45' W 095°06'0 0.0
2018-May-17 14:04N 29°46' W 095°06'0 0.3
2018-May-17 13:50N 29°45' W 095°06'1 2.8
2018-May-17 13:28N 29°46' W 095°07'0 0.8
2018-May-17 12:59N 29°46' W 095°07'0 0.0
2018-May-17 11:52N 29°46' W 095°07'0 0.0
2018-May-17 11:24N 29°46' W 095°07'0 0.0
2018-May-17 11:00N 29°46' W 095°07'0 0.0
2018-May-17 10:30N 29°46' W 095°07'0 0.0
2018-May-17 09:16N 29°46' W 095°07'0 0.0
2018-May-17 08:28N 29°46' W 095°07'0 0.0
2018-May-17 04:17N 29°46' W 095°07'0 0.0
2018-May-17 04:00N 29°46' W 095°07'0 0.0
2018-May-17 03:30N 29°46' W 095°07'0 0.0
2018-May-16 14:19N 29°46' W 095°07'0 0.1
2018-May-16 14:00N 29°46' W 095°07'0 0.0
2018-May-16 13:30N 29°46' W 095°07'0 0.0
2018-May-16 13:00N 29°46' W 095°07'1 1.0
2018-May-16 12:30N 29°46' W 095°06'2 3.8
2018-May-16 12:00N 29°46' W 095°04'0 0.4
2018-May-16 11:30N 29°46' W 095°04'0 0.0
2018-May-16 11:00N 29°46' W 095°04'1 2.5
2018-May-16 10:31N 29°46' W 095°06'0 0.0
2018-May-16 10:00N 29°46' W 095°06'0 0.0
2018-May-16 09:30N 29°46' W 095°06'0 0.0
2018-May-16 09:00N 29°46' W 095°06'0 0.0
2018-May-16 08:30N 29°46' W 095°06'1 1.5
2018-May-16 08:00N 29°46' W 095°05'1 2.3
2018-May-16 07:30N 29°47' W 095°04'0 0.2
2018-May-16 07:01N 29°47' W 095°04'1 2.7
2018-May-16 06:30N 29°46' W 095°05'0 0.8
2018-May-16 05:59N 29°46' W 095°04'0 0.0
2018-May-16 05:30N 29°46' W 095°04'0 0.0
2018-May-16 04:59N 29°46' W 095°04'0 0.0
2018-May-16 04:30N 29°46' W 095°04'0 0.0
2018-May-16 04:00N 29°46' W 095°04'0 0.0
2018-May-16 03:30N 29°46' W 095°04'0 0.0
2018-May-16 02:59N 29°46' W 095°04'0 0.0
2018-May-16 02:30N 29°46' W 095°04'0 0.0
2018-May-16 02:00N 29°46' W 095°04'1 0.1
2018-May-15 15:10N 29°46' W 095°06'0 0.0
2018-May-15 14:37N 29°46' W 095°06'0 0.0
2018-May-15 14:27N 29°46' W 095°06'0 0.0
2018-May-15 14:00N 29°46' W 095°06'1 2.3
2018-May-15 13:29N 29°46' W 095°04'0 0.0
2018-May-15 12:59N 29°46' W 095°04'0 0.1
2018-May-15 12:30N 29°46' W 095°04'1 1.1
2018-May-15 11:59N 29°46' W 095°05'1 1.4
2018-May-15 11:30N 29°47' W 095°05'0 0.0
2018-May-15 11:00N 29°47' W 095°05'0 0.0
2018-May-15 10:28N 29°47' W 095°05'0 0.0
2018-May-15 10:00N 29°47' W 095°05'0 0.0
2018-May-15 09:28N 29°47' W 095°05'0 0.0
2018-May-15 08:58N 29°47' W 095°05'0 0.0
2018-May-15 08:20N 29°47' W 095°05'0 0.0
2018-May-15 06:59N 29°47' W 095°05'0 0.0
2018-May-15 06:22N 29°47' W 095°05'0 0.0
2018-May-15 06:00N 29°47' W 095°05'0 0.0
2018-May-15 05:28N 29°47' W 095°05'0 0.0
2018-May-15 04:59N 29°47' W 095°05'0 0.0
2018-May-15 04:20N 29°47' W 095°05'0 0.0
2018-May-15 03:59N 29°47' W 095°05'0 0.0
2018-May-15 03:30N 29°47' W 095°05'0 0.0
2018-May-15 03:00N 29°47' W 095°05'0 0.0
2018-May-15 02:29N 29°47' W 095°05'0 0.0
2018-May-15 02:00N 29°47' W 095°05'0 0.0
2018-May-15 01:30N 29°47' W 095°05'0 0.0
2018-May-15 01:00N 29°47' W 095°05'0 0.0
2018-May-15 00:27N 29°47' W 095°05'2 0.2
2018-May-14 15:09N 29°45' W 095°06'0 0.3
2018-May-14 14:57N 29°45' W 095°06'0 0.0
2018-May-14 14:19N 29°45' W 095°06'0 0.0
2018-May-14 13:59N 29°45' W 095°06'0 0.0
2018-May-14 13:30N 29°45' W 095°06'0 0.0
2018-May-14 12:59N 29°45' W 095°06'0 0.0
2018-May-14 12:22N 29°45' W 095°06'0 0.0
2018-May-14 00:31N 29°45' W 095°06'0 0.0
2018-May-14 00:30N 29°45' W 095°06'1 0.0
2018-May-13 09:33N 29°46' W 095°06'0 0.0
2018-May-13 03:41N 29°45' W 095°06'0 0.0
2018-May-13 03:24N 29°45' W 095°06'1 0.1
2018-May-12 17:58N 29°46' W 095°04'0 0.0
2018-May-12 14:27N 29°46' W 095°04'0 0.0
2018-May-12 14:00N 29°46' W 095°04'0 0.1
2018-May-12 13:09N 29°46' W 095°04'0 0.7
2018-May-12 13:00N 29°46' W 095°04'0 0.1
2018-May-12 12:27N 29°46' W 095°04'0 0.0
2018-May-12 12:00N 29°46' W 095°04'0 0.0
2018-May-12 11:28N 29°46' W 095°04'1 0.1
2018-May-11 22:48N 29°46' W 095°06'0 0.0
2018-May-11 19:43N 29°45' W 095°06'0 0.1
2018-May-11 12:45N 29°46' W 095°06'0 0.0
2018-May-11 12:14N 29°46' W 095°06'0 0.0
2018-May-11 02:57N 29°45' W 095°06'0 0.0
2018-May-11 02:28N 29°45' W 095°06'0 0.0
2018-May-11 01:54N 29°45' W 095°06'0 0.0
2018-May-10 19:50N 29°45' W 095°06'1 2.3
2018-May-10 19:15N 29°46' W 095°04'0 0.0
2018-May-10 19:00N 29°46' W 095°04'1 1.8
2018-May-10 18:30N 29°46' W 095°05'1 0.1
2018-May-10 14:04N 29°45' W 095°06'0 0.0
2018-May-10 13:56N 29°45' W 095°06'0 0.0
2018-May-10 13:30N 29°45' W 095°06'0 0.0
2018-May-10 13:00N 29°45' W 095°06'0 0.0
2018-May-10 12:27N 29°45' W 095°06'0 0.0
2018-May-10 12:00N 29°45' W 095°06'0 0.0
2018-May-10 11:29N 29°45' W 095°06'0 0.0
2018-May-10 10:59N 29°45' W 095°06'0 0.0
2018-May-10 10:30N 29°45' W 095°06'0 0.0
2018-May-10 10:00N 29°45' W 095°06'0 0.0
2018-May-10 09:26N 29°45' W 095°06'0 0.0
2018-May-10 08:53N 29°45' W 095°06'0 0.0
2018-May-10 08:29N 29°45' W 095°06'0 0.0
2018-May-10 07:58N 29°45' W 095°06'0 0.0
2018-May-10 07:30N 29°45' W 095°06'0 0.0
2018-May-10 07:00N 29°45' W 095°06'0 0.0
2018-May-10 06:30N 29°45' W 095°06'0 0.0
2018-May-10 05:58N 29°45' W 095°06'0 0.0
2018-May-10 05:30N 29°45' W 095°06'0 0.0
2018-May-10 05:00N 29°45' W 095°06'0 0.0
2018-May-10 04:30N 29°45' W 095°06'0 0.0
2018-May-10 04:00N 29°45' W 095°06'0 0.0
2018-May-10 03:28N 29°45' W 095°06'0 0.0
2018-May-10 03:00N 29°45' W 095°06'0 0.0
2018-May-10 02:30N 29°45' W 095°06'0 0.0
2018-May-10 01:59N 29°45' W 095°06'0 0.0
2018-May-10 01:30N 29°45' W 095°06'0 0.0
2018-May-10 00:58N 29°45' W 095°06'0 0.0
2018-May-10 00:20N 29°45' W 095°06'1 1.2
2018-May-09 23:27N 29°45' W 095°06'2 4.1
2018-May-09 23:00N 29°44' W 095°09'2 4.0
2018-May-09 22:30N 29°45' W 095°11'  
Track history (hours):
 
Tides and Currents Weather Stations Pressure Air Temp Water Temp Dewpoint Dewpoint Depression Visibility Wind Speed Wind Dir Waves Ship Positions

Atlas

Owner: Kirby Inland Marine LP, Houston, TX. More information available from US FCC via Universal Licensing System and Coast Guard Vessel Documentation Center.

Last reported at 2018-May-19 06:19 UTC. Time now 2018-May-20 21:54 UTC.
Position N 29°43' W 095°13'.

Length 22 m; draft 2.7 m.

Type: . MMSI: 366995460.

Date/timePositionNaut miles runAvg speedWind from/ knotsBaromVisibWave heightAir tempDewpointWater temp
2018-May-19 06:19N 29°43' W 095°13'4 2.8
2018-May-19 04:57N 29°44' W 095°09'3 2.4
2018-May-19 03:43N 29°45' W 095°06'0 0.1
2018-May-19 03:24N 29°45' W 095°06'0 0.0
2018-May-19 03:00N 29°45' W 095°06'0 0.0
2018-May-19 02:30N 29°45' W 095°06'0 0.0
2018-May-19 01:59N 29°45' W 095°06'0 0.0
2018-May-19 01:28N 29°45' W 095°06'0 0.0
2018-May-19 00:53N 29°45' W 095°06'1 0.1
2018-May-18 14:38N 29°45' W 095°06'1 6.5
2018-May-18 14:25N 29°46' W 095°05'0 0.4
2018-May-18 13:55N 29°46' W 095°06'0 0.0
2018-May-18 12:14N 29°46' W 095°06'0 0.9
2018-May-18 12:00N 29°46' W 095°05'0 0.6
2018-May-18 11:30N 29°45' W 095°06'0 0.0
2018-May-18 10:58N 29°45' W 095°06'0 0.0
2018-May-18 10:30N 29°45' W 095°06'0 0.0
2018-May-18 10:00N 29°45' W 095°06'0 0.0
2018-May-18 09:30N 29°45' W 095°06'0 0.0
2018-May-18 09:00N 29°45' W 095°06'0 0.0
2018-May-18 08:30N 29°45' W 095°06'0 0.0
2018-May-18 08:00N 29°45' W 095°06'0 0.0
2018-May-18 07:30N 29°45' W 095°06'0 0.0
2018-May-18 07:00N 29°45' W 095°06'0 0.0
2018-May-18 06:30N 29°45' W 095°06'0 0.0
2018-May-18 06:00N 29°45' W 095°06'0 0.0
2018-May-18 05:30N 29°45' W 095°06'0 0.0
2018-May-18 05:01N 29°45' W 095°06'0 0.0
2018-May-18 04:30N 29°45' W 095°06'0 0.0
2018-May-18 04:00N 29°45' W 095°06'0 0.0
2018-May-18 03:30N 29°45' W 095°06'0 0.0
2018-May-18 03:00N 29°45' W 095°06'0 0.0
2018-May-18 02:30N 29°45' W 095°06'0 0.0
2018-May-18 01:53N 29°45' W 095°06'0 0.0
2018-May-17 14:04N 29°46' W 095°06'0 0.3
2018-May-17 13:50N 29°45' W 095°06'1 2.8
2018-May-17 13:28N 29°46' W 095°07'0 0.8
2018-May-17 12:59N 29°46' W 095°07'0 0.0
2018-May-17 11:52N 29°46' W 095°07'0 0.0
2018-May-17 11:24N 29°46' W 095°07'0 0.0
2018-May-17 11:00N 29°46' W 095°07'0 0.0
2018-May-17 10:30N 29°46' W 095°07'0 0.0
2018-May-17 09:16N 29°46' W 095°07'0 0.0
2018-May-17 08:28N 29°46' W 095°07'0 0.0
2018-May-17 04:17N 29°46' W 095°07'0 0.0
2018-May-17 04:00N 29°46' W 095°07'0 0.0
2018-May-17 03:30N 29°46' W 095°07'0 0.0
2018-May-16 14:19N 29°46' W 095°07'0 0.1
2018-May-16 14:00N 29°46' W 095°07'0 0.0
2018-May-16 13:30N 29°46' W 095°07'0 0.0
2018-May-16 13:00N 29°46' W 095°07'1 1.0
2018-May-16 12:30N 29°46' W 095°06'2 3.8
2018-May-16 12:00N 29°46' W 095°04'0 0.4
2018-May-16 11:30N 29°46' W 095°04'0 0.0
2018-May-16 11:00N 29°46' W 095°04'1 2.5
2018-May-16 10:31N 29°46' W 095°06'0 0.0
2018-May-16 10:00N 29°46' W 095°06'0 0.0
2018-May-16 09:30N 29°46' W 095°06'0 0.0
2018-May-16 09:00N 29°46' W 095°06'0 0.0
2018-May-16 08:30N 29°46' W 095°06'1 1.5
2018-May-16 08:00N 29°46' W 095°05'1 2.3
2018-May-16 07:30N 29°47' W 095°04'0 0.2
2018-May-16 07:01N 29°47' W 095°04'1 2.7
2018-May-16 06:30N 29°46' W 095°05'0 0.8
2018-May-16 05:59N 29°46' W 095°04'0 0.0
2018-May-16 05:30N 29°46' W 095°04'0 0.0
2018-May-16 04:59N 29°46' W 095°04'0 0.0
2018-May-16 04:30N 29°46' W 095°04'0 0.0
2018-May-16 04:00N 29°46' W 095°04'0 0.0
2018-May-16 03:30N 29°46' W 095°04'0 0.0
2018-May-16 02:59N 29°46' W 095°04'0 0.0
2018-May-16 02:30N 29°46' W 095°04'0 0.0
2018-May-16 02:00N 29°46' W 095°04'1 0.1
2018-May-15 15:10N 29°46' W 095°06'0 0.0
2018-May-15 14:37N 29°46' W 095°06'0 0.0
2018-May-15 14:27N 29°46' W 095°06'0 0.0
2018-May-15 14:00N 29°46' W 095°06'1 2.3
2018-May-15 13:29N 29°46' W 095°04'0 0.0
2018-May-15 12:59N 29°46' W 095°04'0 0.1
2018-May-15 12:30N 29°46' W 095°04'1 1.1
2018-May-15 11:59N 29°46' W 095°05'1 1.4
2018-May-15 11:30N 29°47' W 095°05'0 0.0
2018-May-15 11:00N 29°47' W 095°05'0 0.0
2018-May-15 10:28N 29°47' W 095°05'0 0.0
2018-May-15 10:00N 29°47' W 095°05'0 0.0
2018-May-15 09:28N 29°47' W 095°05'0 0.0
2018-May-15 08:58N 29°47' W 095°05'0 0.0
2018-May-15 08:20N 29°47' W 095°05'0 0.0
2018-May-15 06:59N 29°47' W 095°05'0 0.0
2018-May-15 06:22N 29°47' W 095°05'0 0.0
2018-May-15 06:00N 29°47' W 095°05'0 0.0
2018-May-15 05:28N 29°47' W 095°05'0 0.0
2018-May-15 04:59N 29°47' W 095°05'0 0.0
2018-May-15 04:20N 29°47' W 095°05'0 0.0
2018-May-15 03:59N 29°47' W 095°05'0 0.0
2018-May-15 03:30N 29°47' W 095°05'0 0.0
2018-May-15 03:00N 29°47' W 095°05'0 0.0
2018-May-15 02:29N 29°47' W 095°05'0 0.0
2018-May-15 02:00N 29°47' W 095°05'0 0.0
2018-May-15 01:30N 29°47' W 095°05'0 0.0
2018-May-15 01:00N 29°47' W 095°05'0 0.0
2018-May-15 00:27N 29°47' W 095°05'2 0.2
2018-May-14 15:09N 29°45' W 095°06'0 0.3
2018-May-14 14:57N 29°45' W 095°06'0 0.0
2018-May-14 14:19N 29°45' W 095°06'0 0.0
2018-May-14 13:59N 29°45' W 095°06'0 0.0
2018-May-14 13:30N 29°45' W 095°06'0 0.0
2018-May-14 12:59N 29°45' W 095°06'0 0.0
2018-May-14 12:22N 29°45' W 095°06'0 0.0
2018-May-14 00:31N 29°45' W 095°06'0 0.0
2018-May-14 00:30N 29°45' W 095°06'1 0.0
2018-May-13 09:33N 29°46' W 095°06'0 0.0
2018-May-13 03:41N 29°45' W 095°06'0 0.0
2018-May-13 03:24N 29°45' W 095°06'1 0.1
2018-May-12 17:58N 29°46' W 095°04'0 0.0
2018-May-12 14:27N 29°46' W 095°04'0 0.0
2018-May-12 14:00N 29°46' W 095°04'0 0.1
2018-May-12 13:09N 29°46' W 095°04'0 0.7
2018-May-12 13:00N 29°46' W 095°04'0 0.1
2018-May-12 12:27N 29°46' W 095°04'0 0.0
2018-May-12 12:00N 29°46' W 095°04'0 0.0
2018-May-12 11:28N 29°46' W 095°04'1 0.1
2018-May-11 22:48N 29°46' W 095°06'0 0.0
2018-May-11 19:43N 29°45' W 095°06'0 0.1
2018-May-11 12:45N 29°46' W 095°06'0 0.0
2018-May-11 12:14N 29°46' W 095°06'0 0.0
2018-May-11 02:57N 29°45' W 095°06'0 0.0
2018-May-11 02:28N 29°45' W 095°06'0 0.0
2018-May-11 01:54N 29°45' W 095°06'0 0.0
2018-May-10 19:50N 29°45' W 095°06'1 2.3
2018-May-10 19:15N 29°46' W 095°04'0 0.0
2018-May-10 19:00N 29°46' W 095°04'1 1.8
2018-May-10 18:30N 29°46' W 095°05'1 0.1
2018-May-10 14:04N 29°45' W 095°06'0 0.0
2018-May-10 13:56N 29°45' W 095°06'0 0.0
2018-May-10 13:30N 29°45' W 095°06'0 0.0
2018-May-10 13:00N 29°45' W 095°06'0 0.0
2018-May-10 12:27N 29°45' W 095°06'0 0.0
2018-May-10 12:00N 29°45' W 095°06'0 0.0
2018-May-10 11:29N 29°45' W 095°06'0 0.0
2018-May-10 10:59N 29°45' W 095°06'0 0.0
2018-May-10 10:30N 29°45' W 095°06'0 0.0
2018-May-10 10:00N 29°45' W 095°06'0 0.0
2018-May-10 09:26N 29°45' W 095°06'0 0.0
2018-May-10 08:53N 29°45' W 095°06'0 0.0
2018-May-10 08:29N 29°45' W 095°06'0 0.0
2018-May-10 07:58N 29°45' W 095°06'0 0.0
2018-May-10 07:30N 29°45' W 095°06'0 0.0
2018-May-10 07:00N 29°45' W 095°06'0 0.0
2018-May-10 06:30N 29°45' W 095°06'0 0.0
2018-May-10 05:58N 29°45' W 095°06'0 0.0
2018-May-10 05:30N 29°45' W 095°06'0 0.0
2018-May-10 05:00N 29°45' W 095°06'0 0.0
2018-May-10 04:30N 29°45' W 095°06'0 0.0
2018-May-10 04:00N 29°45' W 095°06'0 0.0
2018-May-10 03:28N 29°45' W 095°06'0 0.0
2018-May-10 03:00N 29°45' W 095°06'0 0.0
2018-May-10 02:30N 29°45' W 095°06'0 0.0
2018-May-10 01:59N 29°45' W 095°06'0 0.0
2018-May-10 01:30N 29°45' W 095°06'0 0.0
2018-May-10 00:58N 29°45' W 095°06'0 0.0
2018-May-10 00:20N 29°45' W 095°06'1 1.2
2018-May-09 23:27N 29°45' W 095°06'2 4.1
2018-May-09 23:00N 29°44' W 095°09'2 4.0
2018-May-09 22:30N 29°45' W 095°11'  

Dump ship's entire track history